createdAt,value
2023-04-03T00:00:50.450Z,17.31
2023-04-03T00:03:18.613Z,17.25
2023-04-03T00:05:48.476Z,17.25
2023-04-03T00:08:16.373Z,17.48
2023-04-03T00:10:44.414Z,17.29
2023-04-03T00:13:12.426Z,16.75
2023-04-03T00:15:41.389Z,16.93
2023-04-03T00:18:09.780Z,16.83
2023-04-03T00:20:38.084Z,16.77
2023-04-03T00:23:07.583Z,17.09
2023-04-03T00:25:35.455Z,17.32
2023-04-03T00:28:04.312Z,17.33
2023-04-03T00:30:32.484Z,17.38
2023-04-03T00:33:01.587Z,17.50
2023-04-03T00:35:30.066Z,17.49
2023-04-03T00:37:58.911Z,17.57
2023-04-03T00:40:28.875Z,17.79
2023-04-03T00:42:59.720Z,17.73
2023-04-03T00:45:37.857Z,18.07
2023-04-03T00:48:09.015Z,17.98
2023-04-03T00:50:39.486Z,17.79
2023-04-03T00:53:11.026Z,17.72
2023-04-03T00:55:40.836Z,17.73
2023-04-03T00:58:10.295Z,17.74
2023-04-03T01:00:41.535Z,17.35
2023-04-03T01:03:09.334Z,16.93
2023-04-03T01:05:37.400Z,17.29
2023-04-03T01:08:05.454Z,17.64
2023-04-03T01:10:33.215Z,17.73
2023-04-03T01:13:02.826Z,17.57
2023-04-03T01:15:35.795Z,17.87
2023-04-03T01:18:05.700Z,17.85
2023-04-03T01:20:49.055Z,17.71
2023-04-03T01:23:27.774Z,17.54
2023-04-03T01:25:57.558Z,17.26
2023-04-03T01:28:30.263Z,17.60
2023-04-03T01:31:04.608Z,17.39
2023-04-03T01:33:33.744Z,17.05
2023-04-03T01:36:02.456Z,16.81
2023-04-03T01:38:30.379Z,16.76
2023-04-03T01:40:58.315Z,16.64
2023-04-03T01:43:26.189Z,16.67
2023-04-03T01:45:55.721Z,16.79
2023-04-03T01:48:23.630Z,16.56
2023-04-03T01:50:52.746Z,16.72
2023-04-03T01:53:20.439Z,16.43
2023-04-03T01:55:48.298Z,16.54
2023-04-03T01:58:16.047Z,16.81
2023-04-03T02:00:43.781Z,16.76
2023-04-03T02:03:11.693Z,16.16
2023-04-03T02:05:40.481Z,16.43
2023-04-03T02:08:09.603Z,15.84
2023-04-03T02:10:37.768Z,16.25
2023-04-03T02:13:05.956Z,16.07
2023-04-03T02:15:33.712Z,16.34
2023-04-03T02:18:01.561Z,16.29
2023-04-03T02:20:35.651Z,16.05
2023-04-03T02:23:03.971Z,15.79
2023-04-03T02:25:36.632Z,15.96
2023-04-03T02:28:06.125Z,15.97
2023-04-03T02:30:33.947Z,16.11
2023-04-03T02:33:01.810Z,15.80
2023-04-03T02:35:29.676Z,15.26
2023-04-03T02:37:57.362Z,15.58
2023-04-03T02:40:25.138Z,16.10
2023-04-03T02:42:54.220Z,15.65
2023-04-03T02:45:21.955Z,15.03
2023-04-03T02:47:49.730Z,15.45
2023-04-03T02:50:17.776Z,14.76
2023-04-03T02:52:45.510Z,14.75
2023-04-03T02:55:16.169Z,14.82
2023-04-03T02:57:44.004Z,14.01
2023-04-03T03:00:14.146Z,15.26
2023-04-03T03:02:42.152Z,14.79
2023-04-03T03:05:10.834Z,15.40
2023-04-03T03:07:38.740Z,15.13
2023-04-03T03:10:07.304Z,15.81
2023-04-03T03:12:35.275Z,15.86
2023-04-03T03:15:03.008Z,15.88
2023-04-03T03:17:32.111Z,15.97
2023-04-03T03:19:59.920Z,15.63
2023-04-03T03:22:28.819Z,15.65
2023-04-03T03:24:57.527Z,15.16
2023-04-03T03:27:25.739Z,15.21
2023-04-03T03:29:53.498Z,15.17
2023-04-03T03:32:21.558Z,15.32
2023-04-03T03:34:50.803Z,15.03
2023-04-03T03:37:18.628Z,15.39
2023-04-03T03:39:46.355Z,15.42
2023-04-03T03:42:14.096Z,15.01
2023-04-03T03:44:41.841Z,15.07
2023-04-03T03:47:11.747Z,14.85
2023-04-03T03:49:39.547Z,14.75
2023-04-03T03:52:11.468Z,14.83
2023-04-03T03:54:39.873Z,14.84
2023-04-03T03:57:07.743Z,15.19
2023-04-03T03:59:35.543Z,15.15
2023-04-03T04:02:03.308Z,15.06
2023-04-03T04:04:31.156Z,15.09
2023-04-03T04:06:58.861Z,15.05
2023-04-03T04:09:28.228Z,14.83
2023-04-03T04:11:56.278Z,14.52
2023-04-03T04:14:24.077Z,14.71
2023-04-03T04:16:51.979Z,14.84
2023-04-03T04:19:19.792Z,14.54
2023-04-03T04:21:47.568Z,14.45
2023-04-03T04:24:15.540Z,14.90
2023-04-03T04:26:44.686Z,14.40
2023-04-03T04:29:12.409Z,14.40
2023-04-03T04:31:40.084Z,14.07
2023-04-03T04:34:08.104Z,14.17
2023-04-03T04:36:36.140Z,14.10
2023-04-03T04:39:03.917Z,14.28
2023-04-03T04:41:31.646Z,14.37
2023-04-03T04:44:00.866Z,14.52
2023-04-03T04:46:28.714Z,14.29
2023-04-03T04:48:56.936Z,14.09
2023-04-03T04:51:24.639Z,13.90
2023-04-03T04:53:53.518Z,13.91
2023-04-03T04:56:22.886Z,13.93
2023-04-03T04:58:50.616Z,14.04
2023-04-03T05:01:20.127Z,13.97
2023-04-03T05:03:48.832Z,14.24
2023-04-03T05:06:16.590Z,14.15
2023-04-03T05:08:44.317Z,14.48
2023-04-03T05:11:12.177Z,14.11
2023-04-03T05:13:39.932Z,13.80
2023-04-03T05:16:08.227Z,14.50
2023-04-03T05:18:37.437Z,14.24
2023-04-03T05:21:05.556Z,14.19
2023-04-03T05:23:33.302Z,14.43
2023-04-03T05:26:01.235Z,13.57
2023-04-03T05:28:29.029Z,13.92
2023-04-03T05:30:57.578Z,13.91
2023-04-03T05:33:27.170Z,13.97
2023-04-03T05:35:56.931Z,13.74
2023-04-03T05:38:24.916Z,13.93
2023-04-03T05:40:52.833Z,13.86
2023-04-03T05:43:20.628Z,13.81
2023-04-03T05:45:49.633Z,13.19
2023-04-03T05:48:17.458Z,13.34
2023-04-03T05:50:45.222Z,13.39
2023-04-03T05:53:19.859Z,13.44
2023-04-03T05:55:47.593Z,12.96
2023-04-03T05:58:15.438Z,13.31
2023-04-03T06:00:43.392Z,13.38
2023-04-03T06:03:11.379Z,13.73
2023-04-03T06:05:39.532Z,13.38
2023-04-03T06:08:07.568Z,13.72
2023-04-03T06:10:37.187Z,13.20
2023-04-03T06:13:05.087Z,13.28
2023-04-03T06:15:32.848Z,13.84
2023-04-03T06:18:00.571Z,14.03
2023-04-03T06:20:28.484Z,13.80
2023-04-03T06:22:56.236Z,13.99
2023-04-03T06:25:24.019Z,13.90
2023-04-03T06:27:53.099Z,14.09
2023-04-03T06:30:21.022Z,14.06
2023-04-03T06:32:48.870Z,13.51
2023-04-03T06:35:16.937Z,14.10
2023-04-03T06:37:44.667Z,14.04
2023-04-03T06:40:20.248Z,13.93
2023-04-03T06:42:48.475Z,13.75
2023-04-03T06:45:18.848Z,13.89
2023-04-03T06:47:47.248Z,14.50
2023-04-03T06:50:16.231Z,14.48
2023-04-03T06:52:43.977Z,13.96
2023-04-03T06:55:12.525Z,14.17
2023-04-03T06:57:40.410Z,14.45
2023-04-03T07:00:10.185Z,14.30
2023-04-03T07:02:39.343Z,14.36
2023-04-03T07:05:08.087Z,14.92
2023-04-03T07:07:36.120Z,15.67
2023-04-03T07:10:03.933Z,15.57
2023-04-03T07:12:31.861Z,14.91
2023-04-03T07:15:00.241Z,14.69
2023-04-03T07:17:28.015Z,14.72
2023-04-03T07:19:57.275Z,14.78
2023-04-03T07:22:25.287Z,15.50
2023-04-03T07:24:53.006Z,15.42
2023-04-03T07:27:20.717Z,15.20
2023-04-03T07:29:49.599Z,15.59
2023-04-03T07:32:18.547Z,15.94
2023-04-03T07:34:46.685Z,14.81
2023-04-03T07:37:15.818Z,14.84
2023-04-03T07:39:45.870Z,14.79
2023-04-03T07:42:14.269Z,15.34
2023-04-03T07:44:42.031Z,15.17
2023-04-03T07:47:10.258Z,15.84
2023-04-03T07:49:41.402Z,16.14
2023-04-03T07:52:09.996Z,15.71
2023-04-03T07:54:39.430Z,16.75
2023-04-03T07:57:07.617Z,16.62
2023-04-03T07:59:35.813Z,15.92
2023-04-03T08:02:05.864Z,15.72
2023-04-03T08:04:34.183Z,15.88
2023-04-03T08:07:01.999Z,15.99
2023-04-03T08:09:29.829Z,15.08
2023-04-03T08:11:59.115Z,14.87
2023-04-03T08:14:27.116Z,15.99
2023-04-03T08:16:54.889Z,15.70
2023-04-03T08:19:26.706Z,16.04
2023-04-03T08:21:55.490Z,15.56
2023-04-03T08:24:23.366Z,14.72
2023-04-03T08:26:51.145Z,15.24
2023-04-03T08:29:20.456Z,15.76
2023-04-03T08:31:48.412Z,14.91
2023-04-03T08:34:16.206Z,15.35
2023-04-03T08:36:44.314Z,15.79
2023-04-03T08:39:12.671Z,15.91
2023-04-03T08:41:43.161Z,15.57
2023-04-03T08:44:23.948Z,15.48
2023-04-03T08:47:04.275Z,15.87
2023-04-03T08:49:35.693Z,16.10
2023-04-03T08:52:12.058Z,16.02
2023-04-03T08:54:50.219Z,16.08
2023-04-03T08:57:19.583Z,16.00
2023-04-03T08:59:48.126Z,15.38
2023-04-03T09:02:28.839Z,15.22
2023-04-03T09:04:57.892Z,14.55
2023-04-03T09:07:35.354Z,15.67
2023-04-03T09:10:04.154Z,16.04
2023-04-03T09:12:38.136Z,15.72
2023-04-03T09:15:20.081Z,15.51
2023-04-03T09:18:03.680Z,15.09
2023-04-03T09:20:41.622Z,16.01
2023-04-03T09:23:19.860Z,16.47
2023-04-03T09:25:48.213Z,15.81
2023-04-03T09:28:16.156Z,15.40
2023-04-03T09:30:43.946Z,15.97
2023-04-03T09:33:14.592Z,15.70
2023-04-03T09:35:48.508Z,15.48
2023-04-03T09:38:22.882Z,16.13
2023-04-03T09:40:52.690Z,15.23
2023-04-03T09:43:30.341Z,15.44
2023-04-03T09:46:19.323Z,15.72
2023-04-03T09:49:08.082Z,15.94
2023-04-03T09:51:36.778Z,15.47
2023-04-03T09:54:37.003Z,15.66
2023-04-03T09:57:09.831Z,16.14
2023-04-03T09:59:39.977Z,15.93
2023-04-03T10:02:26.527Z,16.62
2023-04-03T10:05:08.963Z,15.78
2023-04-03T10:07:41.305Z,15.92
2023-04-03T10:10:25.005Z,15.74
2023-04-03T10:13:06.558Z,15.29
2023-04-03T10:15:41.567Z,15.04
2023-04-03T10:18:28.627Z,16.23
2023-04-03T10:21:02.896Z,16.08
2023-04-03T10:23:35.032Z,16.31
2023-04-03T10:26:16.738Z,16.00
2023-04-03T10:28:51.597Z,15.76
2023-04-03T10:31:27.759Z,16.68
2023-04-03T10:34:07.063Z,15.97
2023-04-03T10:36:47.747Z,16.27
2023-04-03T10:39:27.488Z,16.33
2023-04-03T10:42:16.729Z,16.13
2023-04-03T10:44:59.090Z,16.91
2023-04-03T10:47:35.494Z,17.03
2023-04-03T10:50:28.626Z,16.70
2023-04-03T10:53:02.608Z,16.81
2023-04-03T10:55:38.117Z,17.81
2023-04-03T10:58:08.312Z,16.23
2023-04-03T11:00:41.458Z,16.41
2023-04-03T11:03:16.562Z,16.23
2023-04-03T11:05:47.678Z,16.43
2023-04-03T11:08:27.326Z,16.54
2023-04-03T11:10:59.509Z,16.83
2023-04-03T11:13:34.623Z,16.76
2023-04-03T11:16:02.832Z,18.07
2023-04-03T11:18:37.408Z,18.43
2023-04-03T11:21:13.753Z,18.10
2023-04-03T11:23:49.376Z,18.32
2023-04-03T11:26:21.729Z,19.30
2023-04-03T11:28:54.945Z,17.47
2023-04-03T11:31:35.579Z,17.81
2023-04-03T11:34:15.740Z,17.70
2023-04-03T11:36:48.271Z,17.72
2023-04-03T11:39:24.653Z,18.00
2023-04-03T11:42:00.212Z,19.28
2023-04-03T11:44:37.439Z,19.19
2023-04-03T11:47:06.726Z,19.36
2023-04-03T11:49:56.411Z,19.11
2023-04-03T11:53:02.501Z,18.85
2023-04-03T11:56:15.166Z,18.70
2023-04-03T11:59:23.485Z,18.74
2023-04-03T12:01:52.935Z,19.70
2023-04-03T12:04:22.154Z,18.96
2023-04-03T12:07:14.562Z,18.37
2023-04-03T12:10:31.843Z,18.31
2023-04-03T12:13:05.072Z,19.40
2023-04-03T12:15:58.088Z,19.59
2023-04-03T12:18:57.661Z,19.64
2023-04-03T12:21:38.958Z,19.26
2023-04-03T12:24:26.240Z,18.54
2023-04-03T12:27:20.839Z,19.86
2023-04-03T12:29:54.867Z,19.29
2023-04-03T12:32:37.235Z,19.99
2023-04-03T12:35:18.605Z,19.59
2023-04-03T12:37:59.609Z,20.87
2023-04-03T12:40:33.273Z,20.47
2023-04-03T12:43:20.882Z,19.47
2023-04-03T12:45:56.006Z,20.17
2023-04-03T12:48:28.007Z,19.95
2023-04-03T12:50:57.467Z,19.32
2023-04-03T12:53:28.449Z,19.56
2023-04-03T12:55:57.058Z,20.08
2023-04-03T12:58:28.656Z,20.26
2023-04-03T13:01:04.284Z,20.91
2023-04-03T13:03:33.081Z,19.47
2023-04-03T13:06:04.317Z,20.24
2023-04-03T13:08:32.612Z,19.86
2023-04-03T13:11:03.662Z,19.30
2023-04-03T13:13:32.902Z,20.27
2023-04-03T13:16:00.796Z,20.35
2023-04-03T13:18:33.864Z,19.24
2023-04-03T13:21:06.926Z,20.91
2023-04-03T13:23:38.330Z,20.17
2023-04-03T13:26:07.568Z,21.31
2023-04-03T13:28:37.902Z,20.66
2023-04-03T13:31:11.468Z,20.81
2023-04-03T13:33:40.026Z,20.73
2023-04-03T13:36:13.021Z,20.08
2023-04-03T13:38:40.882Z,21.30
2023-04-03T13:41:27.099Z,20.13
2023-04-03T13:44:03.366Z,20.95
2023-04-03T13:46:38.319Z,21.23
2023-04-03T13:49:19.963Z,21.42
2023-04-03T13:51:54.148Z,21.68
2023-04-03T13:54:34.459Z,21.92
2023-04-03T13:57:02.883Z,22.25
2023-04-03T13:59:34.098Z,22.35
2023-04-03T14:02:17.403Z,22.47
2023-04-03T14:04:54.177Z,21.60
2023-04-03T14:07:22.430Z,20.68
2023-04-03T14:09:50.905Z,21.74
2023-04-03T14:12:31.217Z,21.93
2023-04-03T14:15:02.664Z,21.72
2023-04-03T14:17:30.918Z,20.31
2023-04-03T14:19:59.577Z,22.07
2023-04-03T14:22:30.314Z,22.78
2023-04-03T14:24:58.518Z,21.37
2023-04-03T14:27:29.406Z,20.26
2023-04-03T14:29:59.346Z,20.60
2023-04-03T14:32:28.831Z,21.60
2023-04-03T14:34:57.989Z,21.01
2023-04-03T14:37:28.905Z,22.09
2023-04-03T14:39:58.904Z,21.68
2023-04-03T14:42:30.939Z,20.06
2023-04-03T14:44:58.917Z,20.36
2023-04-03T14:47:32.106Z,21.32
2023-04-03T14:50:01.390Z,21.36
2023-04-03T14:52:32.548Z,20.40
2023-04-03T14:55:01.310Z,21.08
2023-04-03T14:57:30.988Z,21.21
2023-04-03T14:59:58.948Z,21.64
2023-04-03T15:02:31.691Z,20.78
2023-04-03T15:05:00.770Z,21.97
2023-04-03T15:07:30.975Z,21.84
2023-04-03T15:09:58.890Z,21.62
2023-04-03T15:12:27.425Z,21.76
2023-04-03T15:15:01.765Z,21.60
2023-04-03T15:17:32.800Z,21.76
2023-04-03T15:20:01.006Z,20.91
2023-04-03T15:22:28.965Z,20.96
2023-04-03T15:24:56.685Z,21.29
2023-04-03T15:27:24.378Z,21.63
2023-04-03T15:29:52.094Z,21.05
2023-04-03T15:32:19.942Z,21.82
2023-04-03T15:34:49.204Z,21.39
2023-04-03T15:37:16.978Z,21.96
2023-04-03T15:39:44.698Z,21.32
2023-04-03T15:42:13.588Z,22.37
2023-04-03T15:44:41.359Z,23.05
2023-04-03T15:47:09.303Z,23.40
2023-04-03T15:49:37.616Z,22.88
2023-04-03T15:52:06.669Z,21.78
2023-04-03T15:54:34.402Z,21.53
2023-04-03T15:57:02.187Z,22.18
2023-04-03T15:59:31.735Z,21.92
2023-04-03T16:02:02.023Z,22.73
2023-04-03T16:04:30.596Z,22.54
2023-04-03T16:07:08.601Z,22.65
2023-04-03T16:09:38.426Z,22.83
2023-04-03T16:12:06.146Z,22.84
2023-04-03T16:17:02.562Z,22.12
2023-04-03T16:19:31.764Z,22.43
2023-04-03T16:21:59.805Z,21.97
2023-04-03T16:24:28.965Z,22.10
2023-04-03T16:26:56.720Z,21.34
2023-04-03T16:29:24.400Z,21.99
2023-04-03T16:31:52.949Z,22.55
2023-04-03T16:34:21.010Z,22.31
2023-04-03T16:36:48.750Z,22.02
2023-04-03T16:39:16.863Z,21.53
2023-04-03T16:41:46.340Z,21.73
2023-04-03T16:44:14.673Z,22.16
2023-04-03T16:46:42.521Z,22.59
2023-04-03T16:49:10.504Z,21.61
2023-04-03T16:51:38.389Z,21.27
2023-04-03T16:54:07.509Z,21.69
2023-04-03T16:56:35.356Z,22.00
2023-04-03T16:59:04.595Z,21.31
2023-04-03T17:01:32.621Z,21.11
2023-04-03T17:04:00.423Z,21.26
2023-04-03T17:06:28.219Z,21.75
2023-04-03T17:08:56.016Z,22.03
2023-04-03T17:11:24.183Z,22.21
2023-04-03T17:13:51.871Z,21.20
2023-04-03T17:16:21.418Z,21.66
2023-04-03T17:18:50.074Z,22.19
2023-04-03T17:21:18.783Z,21.58
2023-04-03T17:23:49.195Z,21.57
2023-04-03T17:26:17.099Z,21.76
2023-04-03T17:28:45.669Z,22.32
2023-04-03T17:31:14.612Z,22.10
2023-04-03T17:33:43.784Z,21.69
2023-04-03T17:36:12.089Z,21.71
2023-04-03T17:38:40.151Z,22.12
2023-04-03T17:41:09.739Z,21.96
2023-04-03T17:43:37.631Z,21.97
2023-04-03T17:46:08.992Z,21.38
2023-04-03T17:48:39.024Z,21.21
2023-04-03T17:51:09.162Z,20.91
2023-04-03T17:53:36.956Z,21.26
2023-04-03T17:56:07.559Z,21.96
2023-04-03T17:58:35.582Z,21.87
2023-04-03T18:01:10.140Z,21.26
2023-04-03T18:03:38.066Z,21.61
2023-04-03T18:06:06.994Z,22.36
2023-04-03T18:08:39.899Z,22.18
2023-04-03T18:11:08.274Z,22.18
2023-04-03T18:13:37.685Z,22.58
2023-04-03T18:16:06.408Z,22.66
2023-04-03T18:18:34.507Z,22.11
2023-04-03T18:21:02.387Z,22.15
2023-04-03T18:23:33.310Z,22.11
2023-04-03T18:26:04.148Z,21.84
2023-04-03T18:28:32.969Z,21.78
2023-04-03T18:31:01.842Z,21.69
2023-04-03T18:33:29.696Z,22.03
2023-04-03T18:35:57.442Z,21.47
2023-04-03T18:38:25.416Z,21.74
2023-04-03T18:40:54.044Z,21.90
2023-04-03T18:43:23.416Z,21.64
2023-04-03T18:45:51.267Z,21.52
2023-04-03T18:48:20.204Z,21.47
2023-04-03T18:50:48.194Z,21.28
2023-04-03T18:53:16.019Z,21.25
2023-04-03T18:55:43.821Z,21.19
2023-04-03T18:58:11.531Z,21.39
2023-04-03T19:00:42.413Z,21.19
2023-04-03T19:03:12.718Z,20.67
2023-04-03T19:05:40.794Z,20.69
2023-04-03T19:08:08.877Z,20.84
2023-04-03T19:10:36.940Z,21.00
2023-04-03T19:13:04.757Z,21.06
2023-04-03T19:15:32.919Z,20.90
2023-04-03T19:18:02.158Z,20.64
2023-04-03T19:20:30.191Z,20.76
2023-04-03T19:22:57.975Z,20.66
2023-04-03T19:25:25.731Z,20.30
2023-04-03T19:27:54.631Z,20.63
2023-04-03T19:30:22.632Z,20.43
2023-04-03T19:32:50.650Z,20.05
2023-04-03T19:35:19.849Z,19.95
2023-04-03T19:37:50.766Z,19.95
2023-04-03T19:40:18.915Z,19.81
2023-04-03T19:42:46.613Z,19.60
2023-04-03T19:45:14.970Z,19.91
2023-04-03T19:47:43.000Z,19.75
2023-04-03T19:50:11.846Z,19.49
2023-04-03T19:52:41.038Z,19.88
2023-04-03T19:55:09.611Z,20.30
2023-04-03T19:57:37.567Z,20.16
2023-04-03T20:00:06.076Z,20.29
2023-04-03T20:02:33.862Z,19.99
2023-04-03T20:05:01.803Z,19.80
2023-04-03T20:07:29.584Z,19.32
2023-04-03T20:09:58.706Z,19.61
2023-04-03T20:12:26.472Z,20.09
2023-04-03T20:14:54.283Z,20.05
2023-04-03T20:17:21.999Z,19.97
2023-04-03T20:19:50.957Z,20.08
2023-04-03T20:22:18.714Z,19.98
2023-04-03T20:24:46.447Z,20.08
2023-04-03T20:27:16.453Z,19.85
2023-04-03T20:29:44.588Z,19.72
2023-04-03T20:32:14.897Z,19.91
2023-04-03T20:34:42.807Z,19.69
2023-04-03T20:37:12.431Z,19.29
2023-04-03T20:39:40.825Z,19.26
2023-04-03T20:42:09.248Z,19.00
2023-04-03T20:44:38.543Z,18.92
2023-04-03T20:47:06.682Z,19.01
2023-04-03T20:49:34.632Z,18.87
2023-04-03T20:52:02.383Z,18.73
2023-04-03T20:54:30.147Z,18.33
2023-04-03T20:56:57.901Z,18.69
2023-04-03T20:59:25.892Z,18.90
2023-04-03T21:01:55.011Z,18.39
2023-04-03T21:04:26.577Z,18.38
2023-04-03T21:07:31.711Z,18.89
2023-04-03T21:10:37.276Z,18.51
2023-04-03T21:13:42.344Z,18.84
2023-04-03T21:16:09.842Z,18.99
2023-04-03T21:19:07.033Z,18.86
2023-04-03T21:21:37.388Z,18.77
2023-04-03T21:24:09.948Z,18.44
2023-04-03T21:26:39.472Z,18.39
2023-04-03T21:29:08.231Z,18.49
2023-04-03T21:31:54.425Z,18.72
2023-04-03T21:34:25.878Z,18.63
2023-04-03T21:36:53.871Z,18.68
2023-04-03T21:39:23.099Z,18.38
2023-04-03T21:41:51.811Z,17.87
2023-04-03T21:44:19.953Z,18.30
2023-04-03T21:46:48.715Z,18.26
2023-04-03T21:49:17.136Z,18.06
2023-04-03T21:51:46.297Z,18.35
2023-04-03T21:54:14.010Z,17.96
2023-04-03T21:56:41.707Z,18.12
2023-04-03T21:59:09.526Z,17.40
2023-04-03T22:01:37.665Z,17.46
2023-04-03T22:04:05.792Z,17.72
2023-04-03T22:06:33.671Z,18.09
2023-04-03T22:09:03.889Z,17.99
2023-04-03T22:11:31.673Z,18.17
2023-04-03T22:13:59.808Z,17.79
2023-04-03T22:16:27.683Z,17.85
2023-04-03T22:18:59.103Z,17.62
2023-04-03T22:21:27.125Z,17.92
2023-04-03T22:23:55.578Z,17.84
2023-04-03T22:26:24.685Z,17.85
2023-04-03T22:28:52.408Z,17.87
2023-04-03T22:31:21.000Z,17.85
2023-04-03T22:33:48.799Z,17.38
2023-04-03T22:36:16.640Z,17.84
2023-04-03T22:38:44.768Z,17.55
2023-04-03T22:41:12.797Z,17.03
2023-04-03T22:43:42.581Z,17.51
2023-04-03T22:46:11.333Z,17.03
2023-04-03T22:48:42.473Z,17.07
2023-04-03T22:51:10.440Z,17.28
2023-04-03T22:53:38.633Z,17.13
2023-04-03T22:56:10.571Z,17.16
2023-04-03T22:58:38.948Z,16.98
2023-04-03T23:01:11.348Z,16.86
2023-04-03T23:03:40.708Z,16.75
2023-04-03T23:06:09.471Z,16.73
2023-04-03T23:08:39.033Z,16.36
2023-04-03T23:11:09.259Z,16.65
2023-04-03T23:13:37.382Z,17.15
2023-04-03T23:16:06.784Z,17.56
2023-04-03T23:18:39.723Z,17.17
2023-04-03T23:21:08.404Z,17.20
2023-04-03T23:23:36.118Z,16.73
2023-04-03T23:26:04.064Z,16.72
2023-04-03T23:28:31.906Z,16.74
2023-04-03T23:31:01.726Z,17.16
2023-04-03T23:33:30.359Z,17.20
2023-04-03T23:36:00.789Z,17.09
2023-04-03T23:38:29.503Z,16.81
2023-04-03T23:40:57.329Z,16.87
2023-04-03T23:43:25.153Z,16.53
2023-04-03T23:45:52.893Z,17.04
2023-04-03T23:48:20.788Z,16.70
2023-04-03T23:50:48.579Z,16.27
2023-04-03T23:53:18.405Z,16.16
2023-04-03T23:55:46.247Z,16.29
2023-04-03T23:58:14.091Z,16.43
